sensor_id;sensor_type;location;lat;lon;timestamp;temperature;humidity
29849;DHT22;16728;50.832;5.590;2023-08-01T00:01:03;18.00;99.90
29849;DHT22;16728;50.832;5.590;2023-08-01T00:04:05;18.00;99.90
29849;DHT22;16728;50.832;5.590;2023-08-01T00:07:07;18.00;99.90
29849;DHT22;16728;50.832;5.590;2023-08-01T00:10:09;18.00;99.90
29849;DHT22;16728;50.832;5.590;2023-08-01T00:13:11;18.00;99.90
29849;DHT22;16728;50.832;5.590;2023-08-01T00:16:13;17.90;99.90
29849;DHT22;16728;50.832;5.590;2023-08-01T00:19:15;17.90;99.90
29849;DHT22;16728;50.832;5.590;2023-08-01T00:22:17;17.90;99.90
29849;DHT22;16728;50.832;5.590;2023-08-01T00:25:19;17.90;99.90
29849;DHT22;16728;50.832;5.590;2023-08-01T00:28:24;17.90;99.90
29849;DHT22;16728;50.832;5.590;2023-08-01T00:31:28;17.80;99.90
29849;DHT22;16728;50.832;5.590;2023-08-01T00:34:30;17.80;99.90
29849;DHT22;16728;50.832;5.590;2023-08-01T00:37:32;17.80;99.90
29849;DHT22;16728;50.832;5.590;2023-08-01T00:40:34;17.80;99.90
29849;DHT22;16728;50.832;5.590;2023-08-01T00:43:36;17.80;99.90
29849;DHT22;16728;50.832;5.590;2023-08-01T00:46:38;17.70;99.90
29849;DHT22;16728;50.832;5.590;2023-08-01T00:49:40;17.70;99.90
29849;DHT22;16728;50.832;5.590;2023-08-01T00:52:43;17.70;99.90
29849;DHT22;16728;50.832;5.590;2023-08-01T00:55:45;17.70;99.90
29849;DHT22;16728;50.832;5.590;2023-08-01T00:58:47;17.70;99.90
29849;DHT22;16728;50.832;5.590;2023-08-01T01:01:49;17.70;99.90
29849;DHT22;16728;50.832;5.590;2023-08-01T01:04:51;17.70;99.90
29849;DHT22;16728;50.832;5.590;2023-08-01T01:07:53;17.70;99.90
29849;DHT22;16728;50.832;5.590;2023-08-01T01:10:55;17.60;99.90
29849;DHT22;16728;50.832;5.590;2023-08-01T01:13:57;17.60;99.90
29849;DHT22;16728;50.832;5.590;2023-08-01T01:16:59;17.60;99.90
29849;DHT22;16728;50.832;5.590;2023-08-01T01:20:01;17.60;99.90
29849;DHT22;16728;50.832;5.590;2023-08-01T01:23:05;17.50;99.90
29849;DHT22;16728;50.832;5.590;2023-08-01T01:26:09;17.50;99.90
29849;DHT22;16728;50.832;5.590;2023-08-01T01:29:12;17.60;99.90
29849;DHT22;16728;50.832;5.590;2023-08-01T01:32:15;17.60;99.90
29849;DHT22;16728;50.832;5.590;2023-08-01T01:35:18;17.60;99.90
29849;DHT22;16728;50.832;5.590;2023-08-01T01:38:19;17.50;99.90
29849;DHT22;16728;50.832;5.590;2023-08-01T01:41:21;17.50;99.90
29849;DHT22;16728;50.832;5.590;2023-08-01T01:44:24;17.50;99.90
29849;DHT22;16728;50.832;5.590;2023-08-01T01:47:26;17.40;99.90
29849;DHT22;16728;50.832;5.590;2023-08-01T01:50:27;17.40;99.90
29849;DHT22;16728;50.832;5.590;2023-08-01T01:53:29;17.40;99.90
29849;DHT22;16728;50.832;5.590;2023-08-01T01:56:31;17.40;99.90
29849;DHT22;16728;50.832;5.590;2023-08-01T01:59:34;17.40;99.90
29849;DHT22;16728;50.832;5.590;2023-08-01T02:02:36;17.40;99.90
29849;DHT22;16728;50.832;5.590;2023-08-01T02:05:40;17.40;99.90
29849;DHT22;16728;50.832;5.590;2023-08-01T02:08:42;17.30;99.90
29849;DHT22;16728;50.832;5.590;2023-08-01T02:11:44;17.40;99.90
29849;DHT22;16728;50.832;5.590;2023-08-01T02:14:46;17.40;99.90
29849;DHT22;16728;50.832;5.590;2023-08-01T02:17:48;17.30;99.90
29849;DHT22;16728;50.832;5.590;2023-08-01T02:20:50;17.30;99.90
29849;DHT22;16728;50.832;5.590;2023-08-01T02:23:53;17.30;99.90
29849;DHT22;16728;50.832;5.590;2023-08-01T02:26:55;17.30;99.90
29849;DHT22;16728;50.832;5.590;2023-08-01T02:29:57;17.30;99.90
29849;DHT22;16728;50.832;5.590;2023-08-01T02:32:59;17.20;99.90
29849;DHT22;16728;50.832;5.590;2023-08-01T02:36:02;17.30;99.90
29849;DHT22;16728;50.832;5.590;2023-08-01T02:39:04;17.20;99.90
29849;DHT22;16728;50.832;5.590;2023-08-01T02:42:06;17.20;99.90
29849;DHT22;16728;50.832;5.590;2023-08-01T02:45:08;17.20;99.90
29849;DHT22;16728;50.832;5.590;2023-08-01T02:48:11;17.10;99.90
29849;DHT22;16728;50.832;5.590;2023-08-01T02:51:13;17.10;99.90
29849;DHT22;16728;50.832;5.590;2023-08-01T02:54:15;17.10;99.90
29849;DHT22;16728;50.832;5.590;2023-08-01T02:57:17;17.10;99.90
29849;DHT22;16728;50.832;5.590;2023-08-01T03:00:19;17.10;99.90
29849;DHT22;16728;50.832;5.590;2023-08-01T03:03:21;17.10;99.90
29849;DHT22;16728;50.832;5.590;2023-08-01T03:06:23;17.20;99.90
29849;DHT22;16728;50.832;5.590;2023-08-01T03:09:25;17.10;99.90
29849;DHT22;16728;50.832;5.590;2023-08-01T03:12:27;17.10;99.90
29849;DHT22;16728;50.832;5.590;2023-08-01T03:15:29;17.10;99.90
29849;DHT22;16728;50.832;5.590;2023-08-01T03:18:31;17.10;99.90
29849;DHT22;16728;50.832;5.590;2023-08-01T03:21:34;17.10;99.90
29849;DHT22;16728;50.832;5.590;2023-08-01T03:24:36;17.10;99.90
29849;DHT22;16728;50.832;5.590;2023-08-01T03:27:38;17.10;99.90
29849;DHT22;16728;50.832;5.590;2023-08-01T03:30:40;17.10;99.90
29849;DHT22;16728;50.832;5.590;2023-08-01T03:33:42;17.10;99.90
29849;DHT22;16728;50.832;5.590;2023-08-01T03:36:44;17.00;99.90
29849;DHT22;16728;50.832;5.590;2023-08-01T03:39:46;17.00;99.90
29849;DHT22;16728;50.832;5.590;2023-08-01T03:42:48;17.00;99.90
29849;DHT22;16728;50.832;5.590;2023-08-01T03:45:51;17.00;99.90
29849;DHT22;16728;50.832;5.590;2023-08-01T03:48:53;17.00;99.90
29849;DHT22;16728;50.832;5.590;2023-08-01T03:51:55;17.00;99.90
29849;DHT22;16728;50.832;5.590;2023-08-01T03:55:00;16.90;99.90
29849;DHT22;16728;50.832;5.590;2023-08-01T03:58:02;16.90;99.90
29849;DHT22;16728;50.832;5.590;2023-08-01T04:01:04;16.80;99.90
29849;DHT22;16728;50.832;5.590;2023-08-01T04:04:08;16.80;99.90
29849;DHT22;16728;50.832;5.590;2023-08-01T04:07:10;16.70;99.90
29849;DHT22;16728;50.832;5.590;2023-08-01T04:10:12;16.70;99.90
29849;DHT22;16728;50.832;5.590;2023-08-01T04:13:15;16.80;99.90
29849;DHT22;16728;50.832;5.590;2023-08-01T04:16:17;16.80;99.90
29849;DHT22;16728;50.832;5.590;2023-08-01T04:19:19;16.80;99.90
29849;DHT22;16728;50.832;5.590;2023-08-01T04:22:21;16.70;99.90
29849;DHT22;16728;50.832;5.590;2023-08-01T04:25:24;16.70;99.90
29849;DHT22;16728;50.832;5.590;2023-08-01T04:28:28;16.70;99.90
29849;DHT22;16728;50.832;5.590;2023-08-01T04:31:30;16.70;99.90
29849;DHT22;16728;50.832;5.590;2023-08-01T04:34:32;16.70;99.90
29849;DHT22;16728;50.832;5.590;2023-08-01T04:37:35;16.70;99.90
29849;DHT22;16728;50.832;5.590;2023-08-01T04:40:37;16.70;99.90
29849;DHT22;16728;50.832;5.590;2023-08-01T04:43:38;16.70;99.90
29849;DHT22;16728;50.832;5.590;2023-08-01T04:46:40;16.70;99.90
29849;DHT22;16728;50.832;5.590;2023-08-01T04:49:43;16.60;99.90
29849;DHT22;16728;50.832;5.590;2023-08-01T04:52:45;16.70;99.90
29849;DHT22;16728;50.832;5.590;2023-08-01T04:55:47;16.60;99.90
29849;DHT22;16728;50.832;5.590;2023-08-01T04:58:49;16.60;99.90
29849;DHT22;16728;50.832;5.590;2023-08-01T05:01:51;16.60;99.90
29849;DHT22;16728;50.832;5.590;2023-08-01T05:04:53;16.60;99.90
29849;DHT22;16728;50.832;5.590;2023-08-01T05:07:54;16.60;99.90
29849;DHT22;16728;50.832;5.590;2023-08-01T05:10:56;16.60;99.90
29849;DHT22;16728;50.832;5.590;2023-08-01T05:13:58;16.60;99.90
29849;DHT22;16728;50.832;5.590;2023-08-01T05:17:00;16.60;99.90
29849;DHT22;16728;50.832;5.590;2023-08-01T05:20:02;16.60;99.90
29849;DHT22;16728;50.832;5.590;2023-08-01T05:23:07;16.60;99.90
29849;DHT22;16728;50.832;5.590;2023-08-01T05:26:09;16.70;99.90
29849;DHT22;16728;50.832;5.590;2023-08-01T05:29:11;16.70;99.90
29849;DHT22;16728;50.832;5.590;2023-08-01T05:32:13;16.70;99.90
29849;DHT22;16728;50.832;5.590;2023-08-01T05:35:16;16.80;99.90
29849;DHT22;16728;50.832;5.590;2023-08-01T05:38:19;16.80;99.90
29849;DHT22;16728;50.832;5.590;2023-08-01T05:41:21;16.80;99.90
29849;DHT22;16728;50.832;5.590;2023-08-01T05:44:23;16.70;99.90
29849;DHT22;16728;50.832;5.590;2023-08-01T05:47:25;16.60;99.90
29849;DHT22;16728;50.832;5.590;2023-08-01T05:50:27;16.60;99.90
29849;DHT22;16728;50.832;5.590;2023-08-01T05:53:28;16.60;99.90
29849;DHT22;16728;50.832;5.590;2023-08-01T05:56:31;16.60;99.90
29849;DHT22;16728;50.832;5.590;2023-08-01T05:59:34;16.60;99.90
29849;DHT22;16728;50.832;5.590;2023-08-01T06:02:36;16.70;99.90
29849;DHT22;16728;50.832;5.590;2023-08-01T06:05:38;16.70;99.90
29849;DHT22;16728;50.832;5.590;2023-08-01T06:08:40;16.70;99.90
29849;DHT22;16728;50.832;5.590;2023-08-01T06:11:42;16.70;99.90
29849;DHT22;16728;50.832;5.590;2023-08-01T06:14:44;16.70;99.90
29849;DHT22;16728;50.832;5.590;2023-08-01T06:17:46;16.70;99.90
29849;DHT22;16728;50.832;5.590;2023-08-01T06:20:48;16.70;99.90
29849;DHT22;16728;50.832;5.590;2023-08-01T06:23:51;16.70;99.90
29849;DHT22;16728;50.832;5.590;2023-08-01T06:26:55;16.80;99.90
29849;DHT22;16728;50.832;5.590;2023-08-01T06:29:57;16.80;99.90
29849;DHT22;16728;50.832;5.590;2023-08-01T06:32:59;16.80;99.90
29849;DHT22;16728;50.832;5.590;2023-08-01T06:36:01;16.80;99.90
29849;DHT22;16728;50.832;5.590;2023-08-01T06:39:03;16.80;99.90
29849;DHT22;16728;50.832;5.590;2023-08-01T06:42:05;16.90;99.90
29849;DHT22;16728;50.832;5.590;2023-08-01T06:45:07;16.90;99.90
29849;DHT22;16728;50.832;5.590;2023-08-01T06:48:09;16.90;99.90
29849;DHT22;16728;50.832;5.590;2023-08-01T06:51:11;16.90;99.90
29849;DHT22;16728;50.832;5.590;2023-08-01T06:54:23;16.90;99.90
29849;DHT22;16728;50.832;5.590;2023-08-01T06:57:25;17.00;99.90
29849;DHT22;16728;50.832;5.590;2023-08-01T07:00:27;17.00;99.90
29849;DHT22;16728;50.832;5.590;2023-08-01T07:03:29;17.00;99.90
29849;DHT22;16728;50.832;5.590;2023-08-01T07:06:31;17.10;99.90
29849;DHT22;16728;50.832;5.590;2023-08-01T07:09:33;17.20;99.90
29849;DHT22;16728;50.832;5.590;2023-08-01T07:12:35;17.20;99.90
29849;DHT22;16728;50.832;5.590;2023-08-01T07:15:37;17.20;99.90
29849;DHT22;16728;50.832;5.590;2023-08-01T07:18:39;17.20;99.90
29849;DHT22;16728;50.832;5.590;2023-08-01T07:21:41;17.20;99.90
29849;DHT22;16728;50.832;5.590;2023-08-01T07:24:46;17.20;99.90
29849;DHT22;16728;50.832;5.590;2023-08-01T07:27:49;17.20;99.90
29849;DHT22;16728;50.832;5.590;2023-08-01T07:31:02;17.20;99.90
29849;DHT22;16728;50.832;5.590;2023-08-01T07:34:04;17.20;99.90
29849;DHT22;16728;50.832;5.590;2023-08-01T07:37:06;17.30;99.90
29849;DHT22;16728;50.832;5.590;2023-08-01T07:40:08;17.20;99.90
29849;DHT22;16728;50.832;5.590;2023-08-01T07:43:10;17.30;99.90
29849;DHT22;16728;50.832;5.590;2023-08-01T07:46:12;17.30;99.90
29849;DHT22;16728;50.832;5.590;2023-08-01T07:49:14;17.30;99.90
29849;DHT22;16728;50.832;5.590;2023-08-01T07:52:16;17.30;99.90
29849;DHT22;16728;50.832;5.590;2023-08-01T07:55:18;17.40;99.90
29849;DHT22;16728;50.832;5.590;2023-08-01T07:58:20;17.40;99.90
29849;DHT22;16728;50.832;5.590;2023-08-01T08:01:22;17.50;99.90
29849;DHT22;16728;50.832;5.590;2023-08-01T08:04:24;17.50;99.90
29849;DHT22;16728;50.832;5.590;2023-08-01T08:07:26;17.50;99.90
29849;DHT22;16728;50.832;5.590;2023-08-01T08:10:28;17.60;99.90
29849;DHT22;16728;50.832;5.590;2023-08-01T08:13:30;17.60;99.90
29849;DHT22;16728;50.832;5.590;2023-08-01T08:16:32;17.60;99.90
29849;DHT22;16728;50.832;5.590;2023-08-01T08:19:34;17.80;99.90
29849;DHT22;16728;50.832;5.590;2023-08-01T08:22:36;18.00;99.90
29849;DHT22;16728;50.832;5.590;2023-08-01T08:25:38;18.20;99.90
29849;DHT22;16728;50.832;5.590;2023-08-01T08:28:40;18.30;99.90
29849;DHT22;16728;50.832;5.590;2023-08-01T08:31:43;18.40;99.90
29849;DHT22;16728;50.832;5.590;2023-08-01T08:34:45;18.40;99.90
29849;DHT22;16728;50.832;5.590;2023-08-01T08:37:47;18.40;99.90
29849;DHT22;16728;50.832;5.590;2023-08-01T08:41:45;18.40;99.90
29849;DHT22;16728;50.832;5.590;2023-08-01T08:44:43;18.40;99.90
29849;DHT22;16728;50.832;5.590;2023-08-01T08:47:53;18.40;99.90
29849;DHT22;16728;50.832;5.590;2023-08-01T08:50:58;18.30;99.90
29849;DHT22;16728;50.832;5.590;2023-08-01T08:54:01;18.40;99.90
29849;DHT22;16728;50.832;5.590;2023-08-01T08:57:06;18.50;99.90
29849;DHT22;16728;50.832;5.590;2023-08-01T09:00:11;18.60;99.90
29849;DHT22;16728;50.832;5.590;2023-08-01T09:03:14;18.60;99.90
29849;DHT22;16728;50.832;5.590;2023-08-01T09:06:17;18.50;99.90
29849;DHT22;16728;50.832;5.590;2023-08-01T09:09:22;18.60;99.90
29849;DHT22;16728;50.832;5.590;2023-08-01T09:12:28;18.60;99.90
29849;DHT22;16728;50.832;5.590;2023-08-01T09:15:31;18.60;99.90
29849;DHT22;16728;50.832;5.590;2023-08-01T09:18:33;18.70;99.90
29849;DHT22;16728;50.832;5.590;2023-08-01T09:21:38;18.70;99.90
29849;DHT22;16728;50.832;5.590;2023-08-01T09:24:51;18.80;99.90
29849;DHT22;16728;50.832;5.590;2023-08-01T09:27:53;19.00;99.90
29849;DHT22;16728;50.832;5.590;2023-08-01T09:30:55;19.10;99.90
29849;DHT22;16728;50.832;5.590;2023-08-01T09:34:00;19.20;99.90
29849;DHT22;16728;50.832;5.590;2023-08-01T09:37:02;19.30;99.90
29849;DHT22;16728;50.832;5.590;2023-08-01T09:40:05;19.40;99.90
29849;DHT22;16728;50.832;5.590;2023-08-01T09:43:08;19.40;99.90
29849;DHT22;16728;50.832;5.590;2023-08-01T09:46:11;19.40;99.90
29849;DHT22;16728;50.832;5.590;2023-08-01T09:49:13;19.40;99.90
29849;DHT22;16728;50.832;5.590;2023-08-01T09:52:26;19.40;99.90
29849;DHT22;16728;50.832;5.590;2023-08-01T09:55:34;19.50;99.90
29849;DHT22;16728;50.832;5.590;2023-08-01T09:58:36;19.50;99.90
29849;DHT22;16728;50.832;5.590;2023-08-01T10:01:41;19.40;99.90
29849;DHT22;16728;50.832;5.590;2023-08-01T10:04:43;19.30;99.90
29849;DHT22;16728;50.832;5.590;2023-08-01T10:07:46;19.50;99.90
29849;DHT22;16728;50.832;5.590;2023-08-01T10:10:48;19.70;99.90
29849;DHT22;16728;50.832;5.590;2023-08-01T10:13:50;19.80;99.90
29849;DHT22;16728;50.832;5.590;2023-08-01T10:16:53;19.80;99.90
29849;DHT22;16728;50.832;5.590;2023-08-01T10:19:56;19.80;99.90
29849;DHT22;16728;50.832;5.590;2023-08-01T10:22:59;19.70;99.90
29849;DHT22;16728;50.832;5.590;2023-08-01T10:26:05;19.80;99.90
29849;DHT22;16728;50.832;5.590;2023-08-01T10:29:07;19.70;99.90
29849;DHT22;16728;50.832;5.590;2023-08-01T10:32:10;19.80;99.90
29849;DHT22;16728;50.832;5.590;2023-08-01T10:35:12;19.90;99.90
29849;DHT22;16728;50.832;5.590;2023-08-01T10:38:15;20.10;99.90
29849;DHT22;16728;50.832;5.590;2023-08-01T10:44:22;20.30;99.90
29849;DHT22;16728;50.832;5.590;2023-08-01T10:47:27;20.30;99.90
29849;DHT22;16728;50.832;5.590;2023-08-01T10:50:29;20.30;99.90
29849;DHT22;16728;50.832;5.590;2023-08-01T10:53:38;20.30;99.90
29849;DHT22;16728;50.832;5.590;2023-08-01T10:56:47;20.20;99.90
29849;DHT22;16728;50.832;5.590;2023-08-01T10:59:50;20.20;99.90
29849;DHT22;16728;50.832;5.590;2023-08-01T11:02:51;20.10;99.90
29849;DHT22;16728;50.832;5.590;2023-08-01T11:05:57;19.90;99.90
29849;DHT22;16728;50.832;5.590;2023-08-01T11:08:59;19.80;99.90
29849;DHT22;16728;50.832;5.590;2023-08-01T11:12:01;19.70;99.90
29849;DHT22;16728;50.832;5.590;2023-08-01T11:15:05;19.60;99.90
29849;DHT22;16728;50.832;5.590;2023-08-01T11:18:09;19.50;99.90
29849;DHT22;16728;50.832;5.590;2023-08-01T11:21:11;19.50;99.90
29849;DHT22;16728;50.832;5.590;2023-08-01T11:24:14;19.50;99.90
29849;DHT22;16728;50.832;5.590;2023-08-01T11:27:17;19.60;99.90
29849;DHT22;16728;50.832;5.590;2023-08-01T11:30:20;19.70;99.90
29849;DHT22;16728;50.832;5.590;2023-08-01T11:33:23;19.80;99.90
29849;DHT22;16728;50.832;5.590;2023-08-01T11:36:27;19.90;99.90
29849;DHT22;16728;50.832;5.590;2023-08-01T11:39:30;20.00;99.90
29849;DHT22;16728;50.832;5.590;2023-08-01T11:42:32;20.10;99.90
29849;DHT22;16728;50.832;5.590;2023-08-01T11:45:35;20.20;99.90
29849;DHT22;16728;50.832;5.590;2023-08-01T11:48:37;20.20;99.90
29849;DHT22;16728;50.832;5.590;2023-08-01T11:51:43;20.30;99.90
29849;DHT22;16728;50.832;5.590;2023-08-01T11:54:45;20.30;99.90
29849;DHT22;16728;50.832;5.590;2023-08-01T11:57:55;20.40;99.90
29849;DHT22;16728;50.832;5.590;2023-08-01T12:01:05;20.40;99.90
29849;DHT22;16728;50.832;5.590;2023-08-01T12:04:08;20.40;99.90
29849;DHT22;16728;50.832;5.590;2023-08-01T12:10:18;20.70;99.90
29849;DHT22;16728;50.832;5.590;2023-08-01T12:13:25;20.70;99.90
29849;DHT22;16728;50.832;5.590;2023-08-01T12:16:27;20.80;99.90
29849;DHT22;16728;50.832;5.590;2023-08-01T12:19:30;20.90;99.90
29849;DHT22;16728;50.832;5.590;2023-08-01T12:22:32;21.00;99.90
29849;DHT22;16728;50.832;5.590;2023-08-01T12:25:34;20.90;99.90
29849;DHT22;16728;50.832;5.590;2023-08-01T12:28:36;20.80;99.90
29849;DHT22;16728;50.832;5.590;2023-08-01T12:31:38;20.70;99.90
29849;DHT22;16728;50.832;5.590;2023-08-01T12:34:40;20.60;99.90
29849;DHT22;16728;50.832;5.590;2023-08-01T12:37:42;20.50;99.90
29849;DHT22;16728;50.832;5.590;2023-08-01T12:40:44;20.40;99.90
29849;DHT22;16728;50.832;5.590;2023-08-01T12:43:46;20.30;99.90
29849;DHT22;16728;50.832;5.590;2023-08-01T12:46:48;20.30;99.90
29849;DHT22;16728;50.832;5.590;2023-08-01T12:49:50;20.30;99.90
29849;DHT22;16728;50.832;5.590;2023-08-01T12:52:52;20.20;99.90
29849;DHT22;16728;50.832;5.590;2023-08-01T12:55:54;20.00;99.90
29849;DHT22;16728;50.832;5.590;2023-08-01T12:58:56;19.90;99.90
29849;DHT22;16728;50.832;5.590;2023-08-01T13:01:57;19.90;99.90
29849;DHT22;16728;50.832;5.590;2023-08-01T13:04:59;19.80;99.90
29849;DHT22;16728;50.832;5.590;2023-08-01T13:08:02;19.80;99.90
29849;DHT22;16728;50.832;5.590;2023-08-01T13:11:11;19.80;99.90
29849;DHT22;16728;50.832;5.590;2023-08-01T13:14:14;19.70;99.90
29849;DHT22;16728;50.832;5.590;2023-08-01T13:17:16;19.70;99.90
29849;DHT22;16728;50.832;5.590;2023-08-01T13:20:19;19.60;99.90
29849;DHT22;16728;50.832;5.590;2023-08-01T13:23:21;19.50;99.90
29849;DHT22;16728;50.832;5.590;2023-08-01T13:26:23;19.50;99.90
29849;DHT22;16728;50.832;5.590;2023-08-01T13:29:25;19.40;99.90
29849;DHT22;16728;50.832;5.590;2023-08-01T13:32:27;19.50;99.90
29849;DHT22;16728;50.832;5.590;2023-08-01T13:35:29;19.60;99.90
29849;DHT22;16728;50.832;5.590;2023-08-01T13:38:31;19.60;99.90
29849;DHT22;16728;50.832;5.590;2023-08-01T13:41:34;19.70;99.90
29849;DHT22;16728;50.832;5.590;2023-08-01T13:44:36;19.70;99.90
29849;DHT22;16728;50.832;5.590;2023-08-01T13:47:38;19.70;99.90
29849;DHT22;16728;50.832;5.590;2023-08-01T13:50:40;19.80;99.90
29849;DHT22;16728;50.832;5.590;2023-08-01T13:53:41;19.70;99.90
29849;DHT22;16728;50.832;5.590;2023-08-01T13:56:44;19.70;99.90
29849;DHT22;16728;50.832;5.590;2023-08-01T13:59:46;19.70;99.90
29849;DHT22;16728;50.832;5.590;2023-08-01T14:03:02;19.70;99.90
29849;DHT22;16728;50.832;5.590;2023-08-01T14:06:09;19.70;99.90
29849;DHT22;16728;50.832;5.590;2023-08-01T14:09:13;19.50;99.90
29849;DHT22;16728;50.832;5.590;2023-08-01T14:12:15;19.50;99.90
29849;DHT22;16728;50.832;5.590;2023-08-01T14:15:21;19.20;99.90
29849;DHT22;16728;50.832;5.590;2023-08-01T14:18:23;19.20;99.90
29849;DHT22;16728;50.832;5.590;2023-08-01T14:21:25;19.00;99.90
29849;DHT22;16728;50.832;5.590;2023-08-01T14:24:27;18.90;99.90
29849;DHT22;16728;50.832;5.590;2023-08-01T14:27:29;18.90;99.90
29849;DHT22;16728;50.832;5.590;2023-08-01T14:30:31;18.80;99.90
29849;DHT22;16728;50.832;5.590;2023-08-01T14:33:33;18.80;99.90
29849;DHT22;16728;50.832;5.590;2023-08-01T14:36:36;18.80;99.90
29849;DHT22;16728;50.832;5.590;2023-08-01T14:39:38;18.80;99.90
29849;DHT22;16728;50.832;5.590;2023-08-01T14:42:40;18.90;99.90
29849;DHT22;16728;50.832;5.590;2023-08-01T14:45:43;18.90;99.90
29849;DHT22;16728;50.832;5.590;2023-08-01T14:48:45;18.90;99.90
29849;DHT22;16728;50.832;5.590;2023-08-01T14:51:48;18.90;99.90
29849;DHT22;16728;50.832;5.590;2023-08-01T14:54:51;19.00;99.90
29849;DHT22;16728;50.832;5.590;2023-08-01T14:57:53;19.00;99.90
29849;DHT22;16728;50.832;5.590;2023-08-01T15:00:55;19.00;99.90
29849;DHT22;16728;50.832;5.590;2023-08-01T15:03:57;19.00;99.90
29849;DHT22;16728;50.832;5.590;2023-08-01T15:07:01;18.90;99.90
29849;DHT22;16728;50.832;5.590;2023-08-01T15:10:03;19.00;99.90
29849;DHT22;16728;50.832;5.590;2023-08-01T15:13:05;19.20;99.90
29849;DHT22;16728;50.832;5.590;2023-08-01T15:16:10;19.30;99.90
29849;DHT22;16728;50.832;5.590;2023-08-01T15:19:16;19.30;99.90
29849;DHT22;16728;50.832;5.590;2023-08-01T15:22:19;19.40;99.90
29849;DHT22;16728;50.832;5.590;2023-08-01T15:25:21;19.40;99.90
29849;DHT22;16728;50.832;5.590;2023-08-01T15:28:24;19.40;99.90
29849;DHT22;16728;50.832;5.590;2023-08-01T15:31:26;19.40;99.90
29849;DHT22;16728;50.832;5.590;2023-08-01T15:34:28;19.40;99.90
29849;DHT22;16728;50.832;5.590;2023-08-01T15:37:30;19.40;99.90
29849;DHT22;16728;50.832;5.590;2023-08-01T15:40:32;19.30;99.90
29849;DHT22;16728;50.832;5.590;2023-08-01T15:43:35;19.30;99.90
29849;DHT22;16728;50.832;5.590;2023-08-01T15:46:38;19.30;99.90
29849;DHT22;16728;50.832;5.590;2023-08-01T15:49:41;19.20;99.90
29849;DHT22;16728;50.832;5.590;2023-08-01T15:52:44;19.20;99.90
29849;DHT22;16728;50.832;5.590;2023-08-01T15:55:52;19.10;99.90
29849;DHT22;16728;50.832;5.590;2023-08-01T15:58:55;19.10;99.90
29849;DHT22;16728;50.832;5.590;2023-08-01T16:01:57;19.10;99.90
29849;DHT22;16728;50.832;5.590;2023-08-01T16:04:59;19.00;99.90
29849;DHT22;16728;50.832;5.590;2023-08-01T16:08:01;18.90;99.90
29849;DHT22;16728;50.832;5.590;2023-08-01T16:11:03;18.80;99.90
29849;DHT22;16728;50.832;5.590;2023-08-01T16:14:05;18.70;99.90
29849;DHT22;16728;50.832;5.590;2023-08-01T16:17:07;18.70;99.90
29849;DHT22;16728;50.832;5.590;2023-08-01T16:20:10;18.70;99.90
29849;DHT22;16728;50.832;5.590;2023-08-01T16:23:12;18.70;99.90
29849;DHT22;16728;50.832;5.590;2023-08-01T16:26:14;18.70;99.90
29849;DHT22;16728;50.832;5.590;2023-08-01T16:29:16;18.70;99.90
29849;DHT22;16728;50.832;5.590;2023-08-01T16:32:18;18.70;99.90
29849;DHT22;16728;50.832;5.590;2023-08-01T16:35:20;18.70;99.90
29849;DHT22;16728;50.832;5.590;2023-08-01T16:38:22;18.60;99.90
29849;DHT22;16728;50.832;5.590;2023-08-01T16:41:24;18.60;99.90
29849;DHT22;16728;50.832;5.590;2023-08-01T16:44:25;18.60;99.90
29849;DHT22;16728;50.832;5.590;2023-08-01T16:47:27;18.50;99.90
29849;DHT22;16728;50.832;5.590;2023-08-01T16:50:43;18.60;99.90
29849;DHT22;16728;50.832;5.590;2023-08-01T16:53:45;18.60;99.90
29849;DHT22;16728;50.832;5.590;2023-08-01T16:56:48;18.60;99.90
29849;DHT22;16728;50.832;5.590;2023-08-01T16:59:50;18.60;99.90
29849;DHT22;16728;50.832;5.590;2023-08-01T17:02:52;18.60;99.90
29849;DHT22;16728;50.832;5.590;2023-08-01T17:05:54;18.60;99.90
29849;DHT22;16728;50.832;5.590;2023-08-01T17:08:56;18.60;99.90
29849;DHT22;16728;50.832;5.590;2023-08-01T17:11:58;18.50;99.90
29849;DHT22;16728;50.832;5.590;2023-08-01T17:15:00;18.60;99.90
29849;DHT22;16728;50.832;5.590;2023-08-01T17:18:02;18.50;99.90
29849;DHT22;16728;50.832;5.590;2023-08-01T17:21:04;18.50;99.90
29849;DHT22;16728;50.832;5.590;2023-08-01T17:24:06;18.60;99.90
29849;DHT22;16728;50.832;5.590;2023-08-01T17:27:10;18.60;99.90
29849;DHT22;16728;50.832;5.590;2023-08-01T17:30:12;18.50;99.90
29849;DHT22;16728;50.832;5.590;2023-08-01T17:33:14;18.50;99.90
29849;DHT22;16728;50.832;5.590;2023-08-01T17:36:16;18.60;99.90
29849;DHT22;16728;50.832;5.590;2023-08-01T17:39:19;18.50;99.90
29849;DHT22;16728;50.832;5.590;2023-08-01T17:42:21;18.50;99.90
29849;DHT22;16728;50.832;5.590;2023-08-01T17:45:23;18.40;99.90
29849;DHT22;16728;50.832;5.590;2023-08-01T17:48:25;18.40;99.90
29849;DHT22;16728;50.832;5.590;2023-08-01T17:51:33;18.40;99.90
29849;DHT22;16728;50.832;5.590;2023-08-01T17:54:42;18.50;99.90
29849;DHT22;16728;50.832;5.590;2023-08-01T17:57:44;18.60;99.90
29849;DHT22;16728;50.832;5.590;2023-08-01T18:00:49;18.60;99.90
29849;DHT22;16728;50.832;5.590;2023-08-01T18:03:51;18.60;99.90
29849;DHT22;16728;50.832;5.590;2023-08-01T18:06:53;18.50;99.90
29849;DHT22;16728;50.832;5.590;2023-08-01T18:09:57;18.50;99.90
29849;DHT22;16728;50.832;5.590;2023-08-01T18:12:58;18.50;99.90
29849;DHT22;16728;50.832;5.590;2023-08-01T18:16:01;18.40;99.90
29849;DHT22;16728;50.832;5.590;2023-08-01T18:19:03;18.40;99.90
29849;DHT22;16728;50.832;5.590;2023-08-01T18:22:05;18.30;99.90
29849;DHT22;16728;50.832;5.590;2023-08-01T18:25:07;18.30;99.90
29849;DHT22;16728;50.832;5.590;2023-08-01T18:28:09;18.20;99.90
29849;DHT22;16728;50.832;5.590;2023-08-01T18:31:12;18.20;99.90
29849;DHT22;16728;50.832;5.590;2023-08-01T18:34:14;18.20;99.90
29849;DHT22;16728;50.832;5.590;2023-08-01T18:37:16;18.10;99.90
29849;DHT22;16728;50.832;5.590;2023-08-01T18:40:18;18.10;99.90
29849;DHT22;16728;50.832;5.590;2023-08-01T18:43:21;18.10;99.90
29849;DHT22;16728;50.832;5.590;2023-08-01T18:46:22;18.10;99.90
29849;DHT22;16728;50.832;5.590;2023-08-01T18:49:25;18.00;99.90
29849;DHT22;16728;50.832;5.590;2023-08-01T18:52:28;18.00;99.90
29849;DHT22;16728;50.832;5.590;2023-08-01T18:55:31;18.10;99.90
29849;DHT22;16728;50.832;5.590;2023-08-01T18:58:34;18.00;99.90
29849;DHT22;16728;50.832;5.590;2023-08-01T19:01:36;18.00;99.90
29849;DHT22;16728;50.832;5.590;2023-08-01T19:04:38;18.00;99.90
29849;DHT22;16728;50.832;5.590;2023-08-01T19:07:39;17.90;99.90
29849;DHT22;16728;50.832;5.590;2023-08-01T19:10:41;17.80;99.90
29849;DHT22;16728;50.832;5.590;2023-08-01T19:13:43;17.80;99.90
29849;DHT22;16728;50.832;5.590;2023-08-01T19:16:45;17.70;99.90
29849;DHT22;16728;50.832;5.590;2023-08-01T19:19:47;17.70;99.90